Time;durP1;ratioP1;P1;durP2;ratioP2;P2;SDS_P1;SDS_P2;PMS_P1;PMS_P2;Temp;Humidity;BMP_temperature;BMP_pressure;BME280_temperature;BME280_humidity;BME280_pressure;Samples;Min_cycle;Max_cycle;Signal;HPM_P1;HPM_P2
2023/07/10 00:01:19;;;;;;;26.90;10.80;;;;;;;;;;4902574;29;20102;-64
2023/07/10 00:03:45;;;;;;;20.15;10.77;;;;;;;;;;4901782;29;20125;-64
2023/07/10 00:06:13;;;;;;;15.60;10.45;;;;;;;;;;4901889;29;20518;-64
2023/07/10 00:08:39;;;;;;;18.73;10.88;;;;;;;;;;4901575;29;20038;-64
2023/07/10 00:11:16;;;;;;;19.83;11.00;;;;;;;;;;4901477;29;20035;-64
2023/07/10 00:13:42;;;;;;;21.33;10.13;;;;;;;;;;4901288;29;20028;-64
2023/07/10 00:16:13;;;;;;;18.40;10.52;;;;;;;;;;4901738;29;20035;-64
2023/07/10 00:18:39;;;;;;;16.50;9.60;;;;;;;;;;4902547;29;20043;-64
2023/07/10 00:21:05;;;;;;;17.55;10.88;;;;;;;;;;4901675;29;20043;-64
2023/07/10 00:23:31;;;;;;;16.35;10.27;;;;;;;;;;4902007;29;20107;-65
2023/07/10 00:25:57;;;;;;;16.98;10.40;;;;;;;;;;4902099;29;20048;-64
2023/07/10 00:28:23;;;;;;;17.38;9.35;;;;;;;;;;4902219;29;20036;-64
2023/07/10 00:30:50;;;;;;;18.33;10.30;;;;;;;;;;4901107;29;20055;-64
2023/07/10 00:33:18;;;;;;;15.30;10.80;;;;;;;;;;4902804;29;20067;-64
2023/07/10 00:35:45;;;;;;;16.17;9.85;;;;;;;;;;4901475;29;20039;-65
2023/07/10 00:38:14;;;;;;;19.80;12.65;;;;;;;;;;4902825;29;20626;-64
2023/07/10 00:40:40;;;;;;;26.60;14.95;;;;;;;;;;4902275;29;20495;-68
2023/07/10 00:43:27;;;;;;;25.45;13.77;;;;;;;;;;4902377;29;20135;-68
2023/07/10 00:45:53;;;;;;;27.90;17.33;;;;;;;;;;4893168;29;20048;-68
2023/07/10 00:48:27;;;;;;;30.25;17.85;;;;;;;;;;4902392;29;20048;-67
2023/07/10 00:50:53;;;;;;;28.13;18.35;;;;;;;;;;4902404;29;20031;-67
2023/07/10 00:53:25;;;;;;;43.63;21.58;;;;;;;;;;4902024;29;20032;-67
2023/07/10 00:55:53;;;;;;;31.45;20.00;;;;;;;;;;4905035;29;20044;-68
2023/07/10 00:58:23;;;;;;;31.98;21.00;;;;;;;;;;4905274;29;20071;-67
2023/07/10 01:00:59;;;;;;;26.60;19.27;;;;;;;;;;4905172;29;20043;-68
2023/07/10 01:03:25;;;;;;;28.27;19.50;;;;;;;;;;4906297;29;21050;-64
2023/07/10 01:05:51;;;;;;;28.67;19.77;;;;;;;;;;4904480;29;20519;-64
2023/07/10 01:08:18;;;;;;;31.77;20.20;;;;;;;;;;4905732;29;21286;-65
2023/07/10 01:10:44;;;;;;;33.40;18.83;;;;;;;;;;4904850;29;20657;-64
2023/07/10 01:13:10;;;;;;;26.80;17.67;;;;;;;;;;4904884;29;20684;-64
2023/07/10 01:15:36;;;;;;;23.02;17.50;;;;;;;;;;4905358;29;20031;-64
2023/07/10 01:18:05;;;;;;;25.75;17.42;;;;;;;;;;4905187;29;20040;-64
2023/07/10 01:20:36;;;;;;;25.92;17.52;;;;;;;;;;4905519;29;20122;-64
2023/07/10 01:23:03;;;;;;;25.42;16.65;;;;;;;;;;4904883;29;20504;-64
2023/07/10 01:25:32;;;;;;;20.30;16.00;;;;;;;;;;4904546;29;20522;-64
2023/07/10 01:27:58;;;;;;;19.77;15.07;;;;;;;;;;4904832;29;20042;-64
2023/07/10 01:30:27;;;;;;;23.83;16.92;;;;;;;;;;4905189;29;20123;-64
2023/07/10 01:32:55;;;;;;;22.67;16.30;;;;;;;;;;4904329;29;20043;-64
2023/07/10 01:35:22;;;;;;;23.70;17.67;;;;;;;;;;4904660;29;20032;-64
2023/07/10 01:37:48;;;;;;;21.92;16.77;;;;;;;;;;4905219;29;20112;-64
2023/07/10 01:40:15;;;;;;;23.02;16.25;;;;;;;;;;4904475;29;20039;-64
2023/07/10 01:42:41;;;;;;;25.98;16.73;;;;;;;;;;4905455;29;20031;-64
2023/07/10 01:45:12;;;;;;;17.92;14.93;;;;;;;;;;4904172;29;20042;-64
2023/07/10 01:47:38;;;;;;;23.33;17.05;;;;;;;;;;4905091;29;20038;-64
2023/07/10 01:50:04;;;;;;;21.58;15.20;;;;;;;;;;4903387;29;20036;-64
2023/07/10 01:52:31;;;;;;;24.25;16.60;;;;;;;;;;4904147;29;20040;-64
2023/07/10 01:54:57;;;;;;;19.60;16.45;;;;;;;;;;4904210;29;20064;-64
2023/07/10 01:57:23;;;;;;;24.83;16.85;;;;;;;;;;4903914;29;20095;-64
2023/07/10 01:59:53;;;;;;;20.10;16.08;;;;;;;;;;4903938;29;20040;-64
2023/07/10 02:02:19;;;;;;;25.45;16.90;;;;;;;;;;4903908;29;20040;-64
2023/07/10 02:04:45;;;;;;;22.30;17.38;;;;;;;;;;4903152;29;20035;-64
2023/07/10 02:07:11;;;;;;;27.25;17.77;;;;;;;;;;4904544;29;20032;-68
2023/07/10 02:09:37;;;;;;;22.63;17.13;;;;;;;;;;4903896;29;20039;-68
2023/07/10 02:12:03;;;;;;;23.08;17.13;;;;;;;;;;4904154;29;20054;-68
2023/07/10 02:14:29;;;;;;;22.88;17.13;;;;;;;;;;4903698;29;20400;-68
2023/07/10 02:16:55;;;;;;;22.80;17.30;;;;;;;;;;4904230;29;20044;-68
2023/07/10 02:19:22;;;;;;;18.48;16.33;;;;;;;;;;4903856;29;20166;-68
2023/07/10 02:21:48;;;;;;;20.05;15.95;;;;;;;;;;4903586;29;20130;-68
2023/07/10 02:24:14;;;;;;;21.88;15.27;;;;;;;;;;4903903;29;20104;-68
2023/07/10 02:26:40;;;;;;;20.73;17.00;;;;;;;;;;4904159;29;20064;-68
2023/07/10 02:29:06;;;;;;;20.75;15.90;;;;;;;;;;4903671;29;20051;-68
2023/07/10 02:31:32;;;;;;;22.50;16.25;;;;;;;;;;4903675;29;20040;-68
2023/07/10 02:33:58;;;;;;;19.77;14.90;;;;;;;;;;4903788;29;20036;-67
2023/07/10 02:36:26;;;;;;;19.88;14.63;;;;;;;;;;4903704;29;20039;-68
2023/07/10 02:38:52;;;;;;;19.33;14.60;;;;;;;;;;4904153;29;20024;-68
2023/07/10 02:41:18;;;;;;;18.90;13.50;;;;;;;;;;4903999;29;20035;-68
2023/07/10 02:43:45;;;;;;;19.15;13.48;;;;;;;;;;4904126;29;20046;-68
2023/07/10 02:46:11;;;;;;;16.67;13.13;;;;;;;;;;4902765;29;20047;-64
2023/07/10 02:48:37;;;;;;;19.88;13.02;;;;;;;;;;4903592;29;20039;-64
2023/07/10 02:51:03;;;;;;;17.05;12.65;;;;;;;;;;4904029;29;20038;-64
2023/07/10 02:53:29;;;;;;;20.08;14.50;;;;;;;;;;4903584;29;20031;-64
2023/07/10 02:55:55;;;;;;;18.33;13.38;;;;;;;;;;4902707;29;20044;-63
2023/07/10 02:58:21;;;;;;;20.67;12.85;;;;;;;;;;4903607;29;20519;-64
2023/07/10 03:00:55;;;;;;;17.67;13.13;;;;;;;;;;4902824;29;20040;-64
2023/07/10 03:03:21;;;;;;;20.10;12.45;;;;;;;;;;4903865;29;20036;-64
2023/07/10 03:05:53;;;;;;;19.10;12.40;;;;;;;;;;4903155;29;20040;-64
2023/07/10 03:08:19;;;;;;;16.60;12.70;;;;;;;;;;4903776;29;20036;-65
2023/07/10 03:10:45;;;;;;;17.48;11.85;;;;;;;;;;4902626;29;20051;-64
2023/07/10 03:13:11;;;;;;;17.88;13.00;;;;;;;;;;4903102;29;20058;-64
2023/07/10 03:15:37;;;;;;;20.00;13.13;;;;;;;;;;4903277;29;20233;-64
2023/07/10 03:18:03;;;;;;;14.85;11.82;;;;;;;;;;4902310;29;20815;-64
2023/07/10 03:20:29;;;;;;;19.17;13.13;;;;;;;;;;4903783;29;20028;-64
2023/07/10 03:22:55;;;;;;;14.93;11.00;;;;;;;;;;4903188;29;20036;-64
2023/07/10 03:25:21;;;;;;;14.93;10.82;;;;;;;;;;4901754;29;20028;-64
2023/07/10 03:27:48;;;;;;;12.50;10.57;;;;;;;;;;4902953;29;20036;-64
2023/07/10 03:30:14;;;;;;;15.52;10.70;;;;;;;;;;4902365;29;20067;-64
2023/07/10 03:32:40;;;;;;;15.98;10.70;;;;;;;;;;4902731;29;20031;-64
2023/07/10 03:35:07;;;;;;;16.88;10.38;;;;;;;;;;4901578;29;20146;-64
2023/07/10 03:37:33;;;;;;;16.50;11.10;;;;;;;;;;4903707;29;20036;-64
2023/07/10 03:39:59;;;;;;;16.25;10.18;;;;;;;;;;4902511;29;20044;-64
2023/07/10 03:42:25;;;;;;;14.20;9.68;;;;;;;;;;4902532;29;20960;-65
2023/07/10 03:44:51;;;;;;;14.43;9.70;;;;;;;;;;4902332;29;20071;-64
2023/07/10 03:47:17;;;;;;;14.75;10.95;;;;;;;;;;4902397;29;20512;-63
2023/07/10 03:49:43;;;;;;;12.13;9.18;;;;;;;;;;4902203;29;20173;-64
2023/07/10 03:52:09;;;;;;;13.05;9.43;;;;;;;;;;4902792;29;20028;-64
2023/07/10 03:54:36;;;;;;;11.98;8.23;;;;;;;;;;4902827;29;20050;-64
2023/07/10 03:57:02;;;;;;;12.55;8.50;;;;;;;;;;4902616;29;20032;-64
2023/07/10 03:59:28;;;;;;;13.43;7.75;;;;;;;;;;4902673;29;21849;-64
2023/07/10 04:01:54;;;;;;;15.55;7.95;;;;;;;;;;4901801;29;20079;-64
2023/07/10 04:04:21;;;;;;;13.43;7.40;;;;;;;;;;4902115;29;20071;-63
2023/07/10 04:06:47;;;;;;;9.77;7.03;;;;;;;;;;4891711;29;20051;-64
2023/07/10 04:09:13;;;;;;;13.68;7.60;;;;;;;;;;4902173;29;20087;-64
2023/07/10 04:11:39;;;;;;;12.40;7.70;;;;;;;;;;4902525;29;20036;-64
2023/07/10 04:14:05;;;;;;;12.45;7.18;;;;;;;;;;4902797;29;20559;-64
2023/07/10 04:16:31;;;;;;;9.38;6.78;;;;;;;;;;4902213;29;20044;-64
2023/07/10 04:18:57;;;;;;;12.52;7.25;;;;;;;;;;4902738;29;20043;-64
2023/07/10 04:21:24;;;;;;;11.18;7.45;;;;;;;;;;4902139;29;20035;-64
2023/07/10 04:23:51;;;;;;;11.32;7.63;;;;;;;;;;4902331;29;20031;-64
2023/07/10 04:26:24;;;;;;;12.07;8.45;;;;;;;;;;4902190;29;20054;-64
2023/07/10 04:28:50;;;;;;;;;;;;;;;;;;4903308;29;20036;-64
2023/07/10 04:31:16;;;;;;;13.27;8.40;;;;;;;;;;4906098;29;20021;-64
2023/07/10 04:33:43;;;;;;;12.80;8.85;;;;;;;;;;4905147;29;20066;-64
2023/07/10 04:36:09;;;;;;;12.55;9.10;;;;;;;;;;4905027;29;20074;-64
2023/07/10 04:38:35;;;;;;;12.48;8.40;;;;;;;;;;4904803;29;20036;-64
2023/07/10 04:41:05;;;;;;;14.32;8.82;;;;;;;;;;4905902;29;20036;-64
2023/07/10 04:43:31;;;;;;;11.85;8.07;;;;;;;;;;4905455;29;20087;-68
2023/07/10 04:45:59;;;;;;;11.50;9.38;;;;;;;;;;4906522;29;20036;-68
2023/07/10 04:48:25;;;;;;;15.55;8.80;;;;;;;;;;4906037;29;20816;-68
2023/07/10 04:50:52;;;;;;;13.55;8.73;;;;;;;;;;4905664;29;20035;-68
2023/07/10 04:53:18;;;;;;;11.05;7.80;;;;;;;;;;4904924;29;21808;-68
2023/07/10 04:55:45;;;;;;;14.25;8.38;;;;;;;;;;4905793;29;20694;-67
2023/07/10 04:58:11;;;;;;;11.38;7.03;;;;;;;;;;4905228;29;20039;-67
2023/07/10 05:00:38;;;;;;;8.43;6.03;;;;;;;;;;4905587;29;20040;-67
2023/07/10 05:03:04;;;;;;;12.63;6.75;;;;;;;;;;4905309;29;20036;-68
2023/07/10 05:05:30;;;;;;;13.75;6.35;;;;;;;;;;4905510;29;20507;-68
2023/07/10 05:07:56;;;;;;;11.18;6.78;;;;;;;;;;4904983;29;20063;-68
2023/07/10 05:10:22;;;;;;;15.30;5.72;;;;;;;;;;4905510;29;20093;-67
2023/07/10 05:12:49;;;;;;;8.88;6.07;;;;;;;;;;4905326;29;20040;-68
2023/07/10 05:15:15;;;;;;;10.75;4.97;;;;;;;;;;4905409;29;20067;-68
2023/07/10 05:17:41;;;;;;;7.53;4.40;;;;;;;;;;4905704;29;21524;-68
2023/07/10 05:20:08;;;;;;;7.03;3.80;;;;;;;;;;4905517;29;20074;-67
2023/07/10 05:22:34;;;;;;;7.10;3.90;;;;;;;;;;4905668;29;20091;-68
2023/07/10 05:25:00;;;;;;;6.88;3.38;;;;;;;;;;4904654;29;20106;-68
2023/07/10 05:27:26;;;;;;;7.30;3.60;;;;;;;;;;4905468;29;20046;-67
2023/07/10 05:29:52;;;;;;;7.95;3.80;;;;;;;;;;4904641;29;20055;-67
2023/07/10 05:32:18;;;;;;;7.65;3.92;;;;;;;;;;4905465;29;20028;-68
2023/07/10 05:34:44;;;;;;;7.90;3.90;;;;;;;;;;4905041;29;20494;-68
2023/07/10 05:37:11;;;;;;;8.40;4.00;;;;;;;;;;4905059;29;20669;-67
2023/07/10 05:39:37;;;;;;;7.70;3.75;;;;;;;;;;4905191;29;20115;-68
2023/07/10 05:42:03;;;;;;;7.88;3.58;;;;;;;;;;4905061;29;20861;-68
2023/07/10 05:44:29;;;;;;;8.18;3.35;;;;;;;;;;4905297;29;20136;-67
2023/07/10 05:46:56;;;;;;;5.35;3.08;;;;;;;;;;4904199;29;20234;-67
2023/07/10 05:49:23;;;;;;;7.95;3.60;;;;;;;;;;4904697;29;20043;-67
2023/07/10 05:51:49;;;;;;;6.30;3.22;;;;;;;;;;4904484;29;20179;-64
2023/07/10 05:54:15;;;;;;;9.13;3.33;;;;;;;;;;4904739;29;20043;-64
2023/07/10 05:56:42;;;;;;;6.00;3.17;;;;;;;;;;4904917;29;20040;-64
2023/07/10 05:59:11;;;;;;;8.10;3.25;;;;;;;;;;4904863;29;20044;-64
2023/07/10 06:01:37;;;;;;;8.80;2.97;;;;;;;;;;4904296;29;20071;-64
2023/07/10 06:04:04;;;;;;;6.43;3.10;;;;;;;;;;4904430;29;20040;-64
2023/07/10 06:06:30;;;;;;;9.80;3.33;;;;;;;;;;4903866;29;20055;-64
2023/07/10 06:08:56;;;;;;;8.45;2.67;;;;;;;;;;4904470;29;20044;-64
2023/07/10 06:11:22;;;;;;;10.75;3.05;;;;;;;;;;4904650;29;20383;-64
2023/07/10 06:13:48;;;;;;;11.38;2.88;;;;;;;;;;4904414;29;20209;-64
2023/07/10 06:16:14;;;;;;;7.35;2.83;;;;;;;;;;4904279;29;21339;-64
2023/07/10 06:18:40;;;;;;;10.65;2.80;;;;;;;;;;4904022;29;20028;-64
2023/07/10 06:21:07;;;;;;;12.35;3.47;;;;;;;;;;4904924;29;20114;-64
2023/07/10 06:23:33;;;;;;;8.50;3.03;;;;;;;;;;4903697;29;20114;-64
2023/07/10 06:25:59;;;;;;;9.88;2.63;;;;;;;;;;4904911;29;21076;-64
2023/07/10 06:28:26;;;;;;;7.95;2.70;;;;;;;;;;4904130;29;20123;-64
2023/07/10 06:30:55;;;;;;;7.40;3.10;;;;;;;;;;4904159;29;20122;-64
2023/07/10 06:33:21;;;;;;;11.00;2.83;;;;;;;;;;4904055;29;20134;-64
2023/07/10 06:35:47;;;;;;;17.13;3.13;;;;;;;;;;4903638;29;20044;-64
2023/07/10 06:38:13;;;;;;;9.75;2.75;;;;;;;;;;4904505;29;20036;-67
2023/07/10 06:40:39;;;;;;;9.35;3.38;;;;;;;;;;4904151;29;20114;-67
2023/07/10 06:43:05;;;;;;;12.20;3.28;;;;;;;;;;4904099;29;20047;-67
2023/07/10 06:45:31;;;;;;;6.43;2.35;;;;;;;;;;4903845;29;20044;-67
2023/07/10 06:47:57;;;;;;;8.52;3.00;;;;;;;;;;4903719;29;20035;-67
2023/07/10 06:50:23;;;;;;;14.23;3.35;;;;;;;;;;4903311;29;20035;-64
2023/07/10 06:52:49;;;;;;;7.88;2.63;;;;;;;;;;4903163;29;20076;-64
2023/07/10 06:55:16;;;;;;;7.90;2.95;;;;;;;;;;4903857;29;20036;-64
2023/07/10 06:57:42;;;;;;;9.00;3.10;;;;;;;;;;4903765;29;20036;-65
2023/07/10 07:00:10;;;;;;;8.82;3.33;;;;;;;;;;4904274;29;20068;-64
2023/07/10 07:02:37;;;;;;;8.95;2.85;;;;;;;;;;4903960;29;20037;-64
2023/07/10 07:05:07;;;;;;;9.85;2.63;;;;;;;;;;4903400;29;20341;-64
2023/07/10 07:07:33;;;;;;;8.15;2.67;;;;;;;;;;4903672;29;20198;-65
2023/07/10 07:09:59;;;;;;;12.77;2.85;;;;;;;;;;4888013;29;20036;-64
2023/07/10 07:12:25;;;;;;;10.23;3.00;;;;;;;;;;4887298;29;20028;-64
2023/07/10 07:14:51;;;;;;;19.17;2.92;;;;;;;;;;4903175;29;20043;-64
2023/07/10 07:17:17;;;;;;;8.77;2.67;;;;;;;;;;4903149;29;20055;-64
2023/07/10 07:19:45;;;;;;;8.68;2.90;;;;;;;;;;4903259;29;20043;-65
2023/07/10 07:22:11;;;;;;;7.95;2.53;;;;;;;;;;4903064;29;20103;-64
2023/07/10 07:24:37;;;;;;;6.97;2.35;;;;;;;;;;4903460;29;20044;-64
2023/07/10 07:27:03;;;;;;;10.30;2.67;;;;;;;;;;4902685;29;20091;-64
2023/07/10 07:29:29;;;;;;;10.68;2.47;;;;;;;;;;4903076;29;20543;-64
2023/07/10 07:31:55;;;;;;;8.93;2.78;;;;;;;;;;4902877;29;20126;-65
2023/07/10 07:34:22;;;;;;;9.48;2.53;;;;;;;;;;4902774;29;20046;-64
2023/07/10 07:36:51;;;;;;;9.75;2.03;;;;;;;;;;4902873;29;20432;-64
2023/07/10 07:39:17;;;;;;;8.07;2.35;;;;;;;;;;4903013;29;20035;-66
2023/07/10 07:41:43;;;;;;;9.25;2.65;;;;;;;;;;4885748;29;20047;-66
2023/07/10 07:44:09;;;;;;;8.88;2.22;;;;;;;;;;4903198;29;20106;-66
2023/07/10 07:46:35;;;;;;;9.75;2.10;;;;;;;;;;4902760;29;20040;-66
2023/07/10 07:49:02;;;;;;;8.75;2.35;;;;;;;;;;4902821;29;20083;-67
2023/07/10 07:51:29;;;;;;;11.93;2.58;;;;;;;;;;4903049;29;20357;-67
2023/07/10 07:54:04;;;;;;;8.07;2.53;;;;;;;;;;4902599;29;20032;-67
2023/07/10 07:56:30;;;;;;;10.75;2.42;;;;;;;;;;4902624;29;20043;-67
2023/07/10 07:58:56;;;;;;;8.55;2.38;;;;;;;;;;4902919;29;20043;-67
2023/07/10 08:01:22;;;;;;;8.93;2.50;;;;;;;;;;4902364;29;20031;-67
2023/07/10 08:03:48;;;;;;;7.38;2.22;;;;;;;;;;4902209;29;20040;-67
2023/07/10 08:06:14;;;;;;;10.20;2.28;;;;;;;;;;4902347;29;20950;-67
2023/07/10 08:08:40;;;;;;;8.70;2.13;;;;;;;;;;4903231;29;20617;-67
2023/07/10 08:11:07;;;;;;;9.77;2.70;;;;;;;;;;4902344;29;20933;-67
2023/07/10 08:13:33;;;;;;;10.27;2.35;;;;;;;;;;4902695;29;20032;-67
2023/07/10 08:15:59;;;;;;;10.70;2.22;;;;;;;;;;4902310;29;20032;-67
2023/07/10 08:18:25;;;;;;;7.20;2.00;;;;;;;;;;4902188;29;20090;-67
2023/07/10 08:20:52;;;;;;;10.40;2.35;;;;;;;;;;4902293;29;20051;-67
2023/07/10 08:23:18;;;;;;;8.30;2.10;;;;;;;;;;4902573;29;20615;-67
2023/07/10 08:25:44;;;;;;;7.60;2.25;;;;;;;;;;4901978;29;21041;-67
2023/07/10 08:28:10;;;;;;;9.32;2.33;;;;;;;;;;4902863;29;20099;-66
2023/07/10 08:30:36;;;;;;;11.05;2.00;;;;;;;;;;4901873;29;20054;-66
2023/07/10 08:33:02;;;;;;;7.22;2.33;;;;;;;;;;4890739;29;20813;-66
2023/07/10 08:35:29;;;;;;;8.45;1.80;;;;;;;;;;4902414;29;21891;-64
2023/07/10 08:37:55;;;;;;;9.27;2.15;;;;;;;;;;4889710;29;20283;-64
2023/07/10 08:40:26;;;;;;;6.07;2.05;;;;;;;;;;4902607;29;20040;-64
2023/07/10 08:42:52;;;;;;;7.63;1.90;;;;;;;;;;4902888;29;20123;-64
2023/07/10 08:45:28;;;;;;;10.20;2.25;;;;;;;;;;4902396;29;20087;-64
2023/07/10 08:47:58;;;;;;;6.85;2.17;;;;;;;;;;4901974;29;20042;-65
2023/07/10 08:50:29;;;;;;;9.82;2.63;;;;;;;;;;4902760;29;20672;-64
2023/07/10 08:53:01;;;;;;;7.82;2.15;;;;;;;;;;4902109;29;20575;-64
2023/07/10 08:55:30;;;;;;;8.48;2.20;;;;;;;;;;4901753;29;20043;-64
2023/07/10 08:58:01;;;;;;;7.47;2.13;;;;;;;;;;4902777;29;20032;-64
2023/07/10 09:00:30;;;;;;;7.35;2.28;;;;;;;;;;4902403;29;20040;-64
2023/07/10 09:03:02;;;;;;;10.50;2.42;;;;;;;;;;4902372;29;20047;-64
2023/07/10 09:05:30;;;;;;;10.05;2.72;;;;;;;;;;4901845;29;20038;-64
2023/07/10 09:07:57;;;;;;;8.25;2.20;;;;;;;;;;4901674;29;20047;-64
2023/07/10 09:10:26;;;;;;;8.45;2.05;;;;;;;;;;4902156;29;20033;-64
2023/07/10 09:12:54;;;;;;;9.60;2.22;;;;;;;;;;4902515;29;20024;-64
2023/07/10 09:15:27;;;;;;;10.68;2.17;;;;;;;;;;4903135;29;20035;-64
2023/07/10 09:18:11;;;;;;;8.45;2.15;;;;;;;;;;4905907;29;20139;-64
2023/07/10 09:20:38;;;;;;;14.15;2.58;;;;;;;;;;4905616;29;20054;-64
2023/07/10 09:23:11;;;;;;;9.25;2.22;;;;;;;;;;4905420;29;20068;-64
2023/07/10 09:25:37;;;;;;;;;;;;;;;;;;4905524;29;20043;-64
2023/07/10 09:28:03;;;;;;;8.43;2.47;;;;;;;;;;4905545;29;20053;-64
2023/07/10 09:30:38;;;;;;;8.23;2.20;;;;;;;;;;4904784;29;20064;-64
2023/07/10 09:33:06;;;;;;;8.02;2.17;;;;;;;;;;4905423;29;20511;-64
2023/07/10 09:35:34;;;;;;;7.65;2.33;;;;;;;;;;4904707;29;21234;-64
2023/07/10 09:38:01;;;;;;;10.35;2.75;;;;;;;;;;4905732;29;20044;-64
2023/07/10 09:40:40;;;;;;;9.32;2.45;;;;;;;;;;4904682;29;20036;-64
2023/07/10 09:43:10;;;;;;;5.55;1.70;;;;;;;;;;4904950;29;20044;-64
2023/07/10 09:45:39;;;;;;;10.43;2.53;;;;;;;;;;4905103;29;20119;-64
2023/07/10 09:48:14;;;;;;;12.88;2.50;;;;;;;;;;4905165;29;20652;-64
2023/07/10 09:50:40;;;;;;;10.27;2.60;;;;;;;;;;4904939;29;20048;-64
2023/07/10 09:53:21;;;;;;;8.18;2.47;;;;;;;;;;4905273;29;20044;-64
2023/07/10 09:55:47;;;;;;;10.63;2.50;;;;;;;;;;4904920;29;20048;-64
2023/07/10 09:58:13;;;;;;;9.85;2.53;;;;;;;;;;4904859;29;20040;-64
2023/07/10 10:00:45;;;;;;;12.95;2.63;;;;;;;;;;4904659;29;20023;-64
2023/07/10 10:03:16;;;;;;;9.65;2.67;;;;;;;;;;4905160;29;20034;-64
2023/07/10 10:05:42;;;;;;;10.50;2.90;;;;;;;;;;4904496;29;20028;-64
2023/07/10 10:08:19;;;;;;;13.70;2.92;;;;;;;;;;4904885;29;20036;-64
2023/07/10 10:10:45;;;;;;;9.52;2.40;;;;;;;;;;4904687;29;20801;-64
2023/07/10 10:13:18;;;;;;;14.90;2.88;;;;;;;;;;4903995;29;20467;-64
2023/07/10 10:15:48;;;;;;;9.25;2.35;;;;;;;;;;4904907;29;20150;-64
2023/07/10 10:18:37;;;;;;;9.18;2.33;;;;;;;;;;4904391;29;20028;-64
2023/07/10 10:21:03;;;;;;;13.13;2.60;;;;;;;;;;4896232;29;20044;-64
2023/07/10 10:23:34;;;;;;;8.88;2.33;;;;;;;;;;4904044;29;20511;-64
2023/07/10 10:26:20;;;;;;;11.75;2.83;;;;;;;;;;4903536;29;20076;-64
2023/07/10 10:29:05;;;;;;;8.10;2.30;;;;;;;;;;4893120;29;20048;-63
2023/07/10 10:31:36;;;;;;;8.65;2.47;;;;;;;;;;4904067;29;20095;-63
2023/07/10 10:34:07;;;;;;;9.00;2.40;;;;;;;;;;4904190;29;20130;-64
2023/07/10 10:36:47;;;;;;;9.27;2.13;;;;;;;;;;4903638;29;20075;-64
2023/07/10 10:39:21;;;;;;;7.47;2.00;;;;;;;;;;4904097;29;20036;-64
2023/07/10 10:41:54;;;;;;;9.40;2.70;;;;;;;;;;4903460;29;20119;-64
2023/07/10 10:44:20;;;;;;;;;;;;;;;;;;4905342;29;20032;-64
2023/07/10 10:46:46;;;;;;;8.25;2.00;;;;;;;;;;4903855;29;20017;-64
2023/07/10 10:49:15;;;;;;;10.30;2.42;;;;;;;;;;4903725;29;20063;-65
2023/07/10 10:52:00;;;;;;;9.18;2.25;;;;;;;;;;4903828;29;20038;-66
2023/07/10 10:54:36;;;;;;;10.38;2.20;;;;;;;;;;4903496;29;20498;-66
2023/07/10 10:57:10;;;;;;;9.88;2.33;;;;;;;;;;4903835;29;21309;-66
2023/07/10 10:59:46;;;;;;;10.20;3.05;;;;;;;;;;4903535;29;20028;-66
2023/07/10 11:02:31;;;;;;;8.02;2.38;;;;;;;;;;4902615;29;20036;-66
2023/07/10 11:05:03;;;;;;;12.18;2.78;;;;;;;;;;4902829;29;20039;-66
2023/07/10 11:07:30;;;;;;;8.50;2.40;;;;;;;;;;4903524;29;20046;-66
2023/07/10 11:10:02;;;;;;;9.75;2.58;;;;;;;;;;4903249;29;20396;-66
2023/07/10 11:12:31;;;;;;;9.30;2.38;;;;;;;;;;4903547;29;20046;-66
2023/07/10 11:14:59;;;;;;;7.38;2.05;;;;;;;;;;4902920;29;20044;-66
2023/07/10 11:17:25;;;;;;;9.60;2.40;;;;;;;;;;4903088;29;20401;-67
2023/07/10 11:19:51;;;;;;;10.13;1.70;;;;;;;;;;4903359;29;20066;-66
2023/07/10 11:22:28;;;;;;;10.82;2.00;;;;;;;;;;4903188;29;20028;-66
2023/07/10 11:24:54;;;;;;;9.65;2.30;;;;;;;;;;4903157;29;20050;-66
2023/07/10 11:27:23;;;;;;;9.30;2.10;;;;;;;;;;4903769;29;20054;-66
2023/07/10 11:29:55;;;;;;;6.72;1.85;;;;;;;;;;4903358;29;20084;-66
2023/07/10 11:32:22;;;;;;;11.02;2.05;;;;;;;;;;4903301;29;20153;-66
2023/07/10 11:34:56;;;;;;;8.75;2.00;;;;;;;;;;4903230;29;20039;-66
2023/07/10 11:37:35;;;;;;;7.65;2.13;;;;;;;;;;4903432;29;20078;-66
2023/07/10 11:40:20;;;;;;;9.80;2.08;;;;;;;;;;4903083;29;20044;-66
2023/07/10 11:42:46;;;;;;;7.05;1.70;;;;;;;;;;4903787;29;20066;-66
2023/07/10 11:45:13;;;;;;;8.75;2.40;;;;;;;;;;4902881;29;20035;-66
2023/07/10 11:47:43;;;;;;;9.85;2.40;;;;;;;;;;4903529;29;20486;-66
2023/07/10 11:50:14;;;;;;;10.48;2.60;;;;;;;;;;4902238;29;20154;-66
2023/07/10 11:52:41;;;;;;;9.02;1.60;;;;;;;;;;4902588;29;20039;-66
2023/07/10 11:55:14;;;;;;;7.47;2.10;;;;;;;;;;4903024;29;20043;-66
2023/07/10 11:57:40;;;;;;;9.85;2.55;;;;;;;;;;4902346;29;21028;-66
2023/07/10 12:00:06;;;;;;;7.07;1.85;;;;;;;;;;4902834;29;20423;-66
2023/07/10 12:02:37;;;;;;;8.20;1.83;;;;;;;;;;4902508;29;20042;-66
2023/07/10 12:05:16;;;;;;;4.60;1.35;;;;;;;;;;4902313;29;20122;-66
2023/07/10 12:07:58;;;;;;;6.85;2.30;;;;;;;;;;4902143;29;20040;-66
2023/07/10 12:10:26;;;;;;;8.80;1.58;;;;;;;;;;4887087;29;20509;-66
2023/07/10 12:12:52;;;;;;;7.72;1.90;;;;;;;;;;4902366;29;20036;-66
2023/07/10 12:15:18;;;;;;;6.57;1.42;;;;;;;;;;4900698;29;20034;-66
2023/07/10 12:17:45;;;;;;;5.22;1.48;;;;;;;;;;4902027;29;20040;-66
2023/07/10 12:20:26;;;;;;;5.45;1.30;;;;;;;;;;4902414;29;20624;-66
2023/07/10 12:22:53;;;;;;;6.82;1.70;;;;;;;;;;4902735;29;20040;-66
2023/07/10 12:25:19;;;;;;;7.07;1.80;;;;;;;;;;4901831;29;20042;-66
2023/07/10 12:27:45;;;;;;;8.88;2.22;;;;;;;;;;4902794;29;20948;-66
2023/07/10 12:30:16;;;;;;;7.35;1.98;;;;;;;;;;4902598;29;20048;-66
2023/07/10 12:32:42;;;;;;;6.20;1.50;;;;;;;;;;4902646;29;20028;-66
2023/07/10 12:35:13;;;;;;;7.18;2.28;;;;;;;;;;4902333;29;20025;-66
2023/07/10 12:37:41;;;;;;;5.75;1.60;;;;;;;;;;4902514;29;20425;-66
2023/07/10 12:40:12;;;;;;;8.20;2.00;;;;;;;;;;4902570;29;20063;-66
2023/07/10 12:42:39;;;;;;;5.30;1.55;;;;;;;;;;4902664;29;20063;-66
2023/07/10 12:45:15;;;;;;;8.40;1.65;;;;;;;;;;4901489;29;20036;-66
2023/07/10 12:47:45;;;;;;;7.40;1.73;;;;;;;;;;4901848;29;20060;-66
2023/07/10 12:50:11;;;;;;;6.97;1.92;;;;;;;;;;4903367;29;20087;-66
2023/07/10 12:52:37;;;;;;;8.52;1.70;;;;;;;;;;4905860;29;20106;-66
2023/07/10 12:55:06;;;;;;;6.00;1.73;;;;;;;;;;4906296;29;20804;-66
2023/07/10 12:57:34;;;;;;;6.32;1.80;;;;;;;;;;4905584;29;20063;-66
2023/07/10 13:00:03;;;;;;;6.30;1.65;;;;;;;;;;4905013;29;20211;-66
2023/07/10 13:02:35;;;;;;;6.70;1.17;;;;;;;;;;4904893;29;20040;-66
2023/07/10 13:05:02;;;;;;;6.22;1.42;;;;;;;;;;4905473;29;20044;-66
2023/07/10 13:07:39;;;;;;;5.18;1.73;;;;;;;;;;4903780;29;20091;-66
2023/07/10 13:10:25;;;;;;;3.97;1.00;;;;;;;;;;4904806;29;20028;-66
2023/07/10 13:12:53;;;;;;;5.32;1.10;;;;;;;;;;4904694;29;20059;-66
2023/07/10 13:15:20;;;;;;;7.55;1.40;;;;;;;;;;4905132;29;20027;-66
2023/07/10 13:17:53;;;;;;;5.30;0.95;;;;;;;;;;4905726;29;20075;-66
2023/07/10 13:20:19;;;;;;;5.40;1.00;;;;;;;;;;4888129;29;20170;-66
2023/07/10 13:22:45;;;;;;;4.32;1.10;;;;;;;;;;4905839;29;20040;-66
2023/07/10 13:25:11;;;;;;;6.25;1.58;;;;;;;;;;4905321;29;20040;-66
2023/07/10 13:27:37;;;;;;;3.97;1.15;;;;;;;;;;4905807;29;20050;-66
2023/07/10 13:30:04;;;;;;;6.03;1.40;;;;;;;;;;4904982;29;20144;-66
2023/07/10 13:32:30;;;;;;;3.95;1.10;;;;;;;;;;4905504;29;20076;-66
2023/07/10 13:34:56;;;;;;;4.70;0.95;;;;;;;;;;4905158;29;20032;-66
2023/07/10 13:37:23;;;;;;;5.45;1.30;;;;;;;;;;4905261;29;20053;-66
2023/07/10 13:39:49;;;;;;;5.93;1.10;;;;;;;;;;4904358;29;20094;-66
2023/07/10 13:42:20;;;;;;;5.28;0.90;;;;;;;;;;4903411;29;20039;-66
2023/07/10 13:44:46;;;;;;;6.30;1.08;;;;;;;;;;4904876;29;21872;-66
2023/07/10 13:47:17;;;;;;;5.88;1.33;;;;;;;;;;4904440;29;20052;-66
2023/07/10 13:49:43;;;;;;;4.63;1.05;;;;;;;;;;4905235;29;20055;-66
2023/07/10 13:52:14;;;;;;;5.22;1.33;;;;;;;;;;4904902;29;20028;-66
2023/07/10 13:54:40;;;;;;;6.88;1.50;;;;;;;;;;4904806;29;20119;-66
2023/07/10 13:57:13;;;;;;;5.75;1.50;;;;;;;;;;4904584;29;20044;-66
2023/07/10 13:59:39;;;;;;;6.90;1.33;;;;;;;;;;4904254;29;20051;-66
2023/07/10 14:02:21;;;;;;;4.88;0.93;;;;;;;;;;4904237;29;20154;-66
2023/07/10 14:04:49;;;;;;;6.00;1.58;;;;;;;;;;4904375;29;20035;-66
2023/07/10 14:07:15;;;;;;;6.63;1.38;;;;;;;;;;4904648;29;20495;-66
2023/07/10 14:09:41;;;;;;;6.50;1.13;;;;;;;;;;4904296;29;20943;-64
2023/07/10 14:12:13;;;;;;;7.53;1.52;;;;;;;;;;4904880;29;21420;-64
2023/07/10 14:14:39;;;;;;;6.55;1.20;;;;;;;;;;4904254;29;20067;-64
2023/07/10 14:17:05;;;;;;;2.55;0.90;;;;;;;;;;4904875;29;20035;-64
2023/07/10 14:19:31;;;;;;;4.25;0.73;;;;;;;;;;4904420;29;20743;-64
2023/07/10 14:21:57;;;;;;;6.25;0.75;;;;;;;;;;4903946;29;20086;-64
2023/07/10 14:24:24;;;;;;;5.03;1.08;;;;;;;;;;4904691;29;20150;-64
2023/07/10 14:26:50;;;;;;;2.67;0.80;;;;;;;;;;4902482;29;20166;-64
2023/07/10 14:29:16;;;;;;;6.30;1.33;;;;;;;;;;4903888;29;20063;-64
2023/07/10 14:31:42;;;;;;;4.35;0.70;;;;;;;;;;4903346;29;20059;-64
2023/07/10 14:34:09;;;;;;;6.80;1.15;;;;;;;;;;4903743;29;20048;-64
2023/07/10 14:36:35;;;;;;;4.93;1.27;;;;;;;;;;4903949;29;20074;-64
2023/07/10 14:39:01;;;;;;;5.65;1.30;;;;;;;;;;4903843;29;20040;-64